Time,TemperatureF,DewpointF,PressureIn,WindDirection,WindDirectionDegrees,WindSpeedMPH,WindSpeedGustMPH,Humidity,HourlyPrecipIn,Conditions,Clouds,dailyrainin,SoftwareType,DateUTC
2013-01-19 00:00:00,14.0,-21.0,-100.00,NNW,336,12.0,20.0,18,-99.99,,,-99.99,,2013-01-19 07:00:00,
2013-01-19 00:43:00,14.0,-21.0,-100.00,NNW,336,12.0,20.0,18,-99.99,,,-99.99,,2013-01-19 07:43:00,
2013-01-19 00:52:00,14.0,-21.0,-100.00,NNW,336,12.0,20.0,18,-99.99,,,-99.99,,2013-01-19 07:52:00,
2013-01-19 01:00:00,12.0,-18.0,-100.00,NNW,347,16.0,28.0,23,-99.99,,,-99.99,,2013-01-19 08:00:00,
2013-01-19 01:43:00,12.0,-18.0,-100.00,NNW,347,16.0,28.0,23,-99.99,,,-99.99,,2013-01-19 08:43:00,
2013-01-19 01:53:00,12.0,-18.0,-100.00,NNW,347,16.0,28.0,23,-99.99,,,-99.99,,2013-01-19 08:53:00,
2013-01-19 02:00:00,13.0,-19.0,-100.00,North,349,16.0,24.0,21,-99.99,,,-99.99,,2013-01-19 09:00:00,
2013-01-19 02:43:00,13.0,-19.0,-100.00,North,349,16.0,24.0,21,-99.99,,,-99.99,,2013-01-19 09:43:00,
2013-01-19 02:52:00,13.0,-19.0,-100.00,North,349,16.0,24.0,21,-99.99,,,-99.99,,2013-01-19 09:52:00,
2013-01-19 03:00:00,13.0,-21.0,-100.00,North,8,21.0,40.0,19,-99.99,,,-99.99,,2013-01-19 10:00:00,
2013-01-19 03:43:00,13.0,-21.0,-100.00,North,8,21.0,40.0,19,-99.99,,,-99.99,,2013-01-19 10:43:00,
2013-01-19 03:53:00,13.0,-21.0,-100.00,North,8,21.0,40.0,19,-99.99,,,-99.99,,2013-01-19 10:53:00,
2013-01-19 05:00:00,15.0,-16.0,-100.00,North,2,24.0,35.0,23,-99.99,,,-99.99,,2013-01-19 12:00:00,
2013-01-19 05:48:00,15.0,-16.0,-100.00,North,2,24.0,35.0,23,-99.99,,,-99.99,,2013-01-19 12:48:00,
2013-01-19 05:53:00,15.0,-16.0,-100.00,North,2,24.0,35.0,23,-99.99,,,-99.99,,2013-01-19 12:53:00,
2013-01-19 06:00:00,15.0,-12.0,-100.00,North,5,25.0,43.0,28,-99.99,,,-99.99,,2013-01-19 13:00:00,
2013-01-19 06:43:00,15.0,-12.0,-100.00,North,5,25.0,43.0,28,-99.99,,,-99.99,,2013-01-19 13:43:00,
2013-01-19 06:53:00,15.0,-12.0,-100.00,North,5,25.0,43.0,28,-99.99,,,-99.99,,2013-01-19 13:53:00,
2013-01-19 07:00:00,14.0,-12.0,-100.00,North,3,20.0,37.0,29,-99.99,,,-99.99,,2013-01-19 14:00:00,
2013-01-19 07:43:00,14.0,-12.0,-100.00,North,3,20.0,37.0,29,-99.99,,,-99.99,,2013-01-19 14:43:00,
2013-01-19 07:53:00,14.0,-12.0,-100.00,North,3,20.0,37.0,29,-99.99,,,-99.99,,2013-01-19 14:53:00,
2013-01-19 08:00:00,14.0,-11.0,-100.00,North,0,15.0,23.0,31,-99.99,,,-99.99,,2013-01-19 15:00:00,
2013-01-19 08:43:00,14.0,-11.0,-100.00,North,0,15.0,23.0,31,-99.99,,,-99.99,,2013-01-19 15:43:00,
2013-01-19 08:53:00,14.0,-11.0,-100.00,North,0,15.0,23.0,31,-99.99,,,-99.99,,2013-01-19 15:53:00,
2013-01-19 09:00:00,13.0,-9.0,-100.00,NNE,13,14.0,22.0,36,-99.99,,,-99.99,,2013-01-19 16:00:00,
2013-01-19 09:43:00,13.0,-9.0,-100.00,NNE,13,14.0,22.0,36,-99.99,,,-99.99,,2013-01-19 16:43:00,
2013-01-19 09:54:00,13.0,-9.0,-100.00,NNE,13,14.0,22.0,36,-99.99,,,-99.99,,2013-01-19 16:54:00,
2013-01-19 10:00:00,16.0,-10.0,-100.00,NNE,16,13.0,26.0,30,-99.99,,,-99.99,,2013-01-19 17:00:00,
2013-01-19 10:50:00,16.0,-10.0,-100.00,NNE,16,13.0,26.0,30,-99.99,,,-99.99,,2013-01-19 17:50:00,
2013-01-19 11:47:00,18.0,-14.0,-100.00,NNE,23,11.0,23.0,22,-99.99,,,-99.99,,2013-01-19 18:47:00,
2013-01-19 11:59:00,18.0,-14.0,-100.00,NNE,23,11.0,23.0,22,-99.99,,,-99.99,,2013-01-19 18:59:00,
2013-01-19 12:00:00,20.0,-19.0,-100.00,NNE,20,19.0,24.0,15,-99.99,,,-99.99,,2013-01-19 19:00:00,
2013-01-19 12:49:00,20.0,-19.0,-100.00,NNE,20,19.0,24.0,15,-99.99,,,-99.99,,2013-01-19 19:49:00,
2013-01-19 12:55:00,20.0,-19.0,-100.00,NNE,20,19.0,24.0,15,-99.99,,,-99.99,,2013-01-19 19:55:00,